sensor_id;sensor_type;location;lat;lon;timestamp;pressure;altitude;pressure_sealevel;temperature;humidity
43681;BME280;29281;50.356;30.894;2023-03-21T00:00:41;100024.03;;;4.45;100.00
43681;BME280;29281;50.356;30.894;2023-03-21T00:01:45;100031.91;;;4.45;100.00
43681;BME280;29281;50.356;30.894;2023-03-21T00:02:47;100028.53;;;4.43;100.00
43681;BME280;29281;50.356;30.894;2023-03-21T00:03:52;100028.43;;;4.44;100.00
43681;BME280;29281;50.356;30.894;2023-03-21T00:04:55;100030.14;;;4.45;100.00
43681;BME280;29281;50.356;30.894;2023-03-21T00:06:08;100024.03;;;4.45;100.00
43681;BME280;29281;50.356;30.894;2023-03-21T00:07:08;100031.23;;;4.41;100.00
43681;BME280;29281;50.356;30.894;2023-03-21T00:08:14;100027.67;;;4.42;100.00
43681;BME280;29281;50.356;30.894;2023-03-21T00:09:20;100019.06;;;4.39;100.00
43681;BME280;29281;50.356;30.894;2023-03-21T00:10:23;100022.68;;;4.36;100.00
43681;BME280;29281;50.356;30.894;2023-03-21T00:11:28;100025.25;;;4.38;100.00
43681;BME280;29281;50.356;30.894;2023-03-21T00:12:32;100027.22;;;4.33;100.00
43681;BME280;29281;50.356;30.894;2023-03-21T00:13:37;100028.01;;;4.35;100.00
43681;BME280;29281;50.356;30.894;2023-03-21T00:14:44;100018.48;;;4.32;100.00
43681;BME280;29281;50.356;30.894;2023-03-21T00:15:49;100018.61;;;4.29;100.00
43681;BME280;29281;50.356;30.894;2023-03-21T00:16:54;100015.84;;;4.32;100.00
43681;BME280;29281;50.356;30.894;2023-03-21T00:18:00;100018.70;;;4.28;100.00
43681;BME280;29281;50.356;30.894;2023-03-21T00:19:04;100016.14;;;4.26;100.00
43681;BME280;29281;50.356;30.894;2023-03-21T00:20:09;100009.38;;;4.20;100.00
43681;BME280;29281;50.356;30.894;2023-03-21T00:21:15;100011.28;;;4.17;100.00
43681;BME280;29281;50.356;30.894;2023-03-21T00:22:19;100012.27;;;4.14;100.00
43681;BME280;29281;50.356;30.894;2023-03-21T00:23:24;100007.86;;;4.15;100.00
43681;BME280;29281;50.356;30.894;2023-03-21T00:24:27;100005.40;;;4.12;100.00
43681;BME280;29281;50.356;30.894;2023-03-21T00:25:30;100006.31;;;4.11;100.00
43681;BME280;29281;50.356;30.894;2023-03-21T00:26:35;100001.06;;;4.11;100.00
43681;BME280;29281;50.356;30.894;2023-03-21T00:27:39;99999.28;;;4.11;100.00
43681;BME280;29281;50.356;30.894;2023-03-21T00:28:44;100004.55;;;4.11;100.00
43681;BME280;29281;50.356;30.894;2023-03-21T00:29:48;100003.69;;;4.11;100.00
43681;BME280;29281;50.356;30.894;2023-03-21T00:30:58;100001.98;;;4.10;100.00
43681;BME280;29281;50.356;30.894;2023-03-21T00:32:02;100002.30;;;4.02;100.00
43681;BME280;29281;50.356;30.894;2023-03-21T00:33:04;100001.52;;;4.00;100.00
43681;BME280;29281;50.356;30.894;2023-03-21T00:34:13;100006.20;;;3.94;100.00
43681;BME280;29281;50.356;30.894;2023-03-21T00:35:17;100001.80;;;3.94;100.00
43681;BME280;29281;50.356;30.894;2023-03-21T00:36:22;100007.75;;;3.98;100.00
43681;BME280;29281;50.356;30.894;2023-03-21T00:37:27;100006.93;;;3.97;100.00
43681;BME280;29281;50.356;30.894;2023-03-21T00:38:31;100008.55;;;4.00;100.00
43681;BME280;29281;50.356;30.894;2023-03-21T00:39:34;100004.30;;;3.97;100.00
43681;BME280;29281;50.356;30.894;2023-03-21T00:40:37;100004.43;;;3.94;100.00
43681;BME280;29281;50.356;30.894;2023-03-21T00:41:43;100002.78;;;3.92;100.00
43681;BME280;29281;50.356;30.894;2023-03-21T00:42:49;100002.59;;;3.96;100.00
43681;BME280;29281;50.356;30.894;2023-03-21T00:43:52;99998.26;;;3.95;100.00
43681;BME280;29281;50.356;30.894;2023-03-21T00:44:56;99998.19;;;3.97;100.00
43681;BME280;29281;50.356;30.894;2023-03-21T00:46:03;99998.89;;;4.00;100.00
43681;BME280;29281;50.356;30.894;2023-03-21T00:47:09;99997.11;;;4.01;100.00
43681;BME280;29281;50.356;30.894;2023-03-21T00:48:14;100000.59;;;4.01;100.00
43681;BME280;29281;50.356;30.894;2023-03-21T00:49:19;100001.52;;;4.00;100.00
43681;BME280;29281;50.356;30.894;2023-03-21T00:50:22;100002.66;;;3.95;100.00
43681;BME280;29281;50.356;30.894;2023-03-21T00:51:25;99996.74;;;3.89;100.00
43681;BME280;29281;50.356;30.894;2023-03-21T00:52:29;99992.28;;;3.92;100.00
43681;BME280;29281;50.356;30.894;2023-03-21T00:53:34;100000.28;;;3.88;100.00
43681;BME280;29281;50.356;30.894;2023-03-21T00:54:38;99994.53;;;3.80;100.00
43681;BME280;29281;50.356;30.894;2023-03-21T00:55:43;99995.09;;;3.87;100.00
43681;BME280;29281;50.356;30.894;2023-03-21T00:56:49;99995.95;;;3.87;100.00
43681;BME280;29281;50.356;30.894;2023-03-21T00:57:52;99990.76;;;3.86;100.00
43681;BME280;29281;50.356;30.894;2023-03-21T00:58:59;99996.80;;;3.88;100.00
43681;BME280;29281;50.356;30.894;2023-03-21T01:00:02;99996.74;;;3.89;100.00
43681;BME280;29281;50.356;30.894;2023-03-21T01:01:07;99994.77;;;3.95;100.00
43681;BME280;29281;50.356;30.894;2023-03-21T01:02:11;99995.41;;;4.00;100.00
43681;BME280;29281;50.356;30.894;2023-03-21T01:03:16;99996.13;;;4.03;100.00
43681;BME280;29281;50.356;30.894;2023-03-21T01:04:26;99989.95;;;4.04;100.00
43681;BME280;29281;50.356;30.894;2023-03-21T01:05:32;99987.52;;;4.00;100.00
43681;BME280;29281;50.356;30.894;2023-03-21T01:06:54;99987.39;;;4.03;100.00
43681;BME280;29281;50.356;30.894;2023-03-21T01:07:58;99993.37;;;4.06;100.00
43681;BME280;29281;50.356;30.894;2023-03-21T01:09:01;99988.31;;;4.02;100.00
43681;BME280;29281;50.356;30.894;2023-03-21T01:10:09;99986.41;;;4.05;100.00
43681;BME280;29281;50.356;30.894;2023-03-21T01:11:15;99993.63;;;4.00;100.00
43681;BME280;29281;50.356;30.894;2023-03-21T01:12:19;99984.70;;;4.04;100.00
43681;BME280;29281;50.356;30.894;2023-03-21T01:13:22;99983.84;;;4.04;100.00
43681;BME280;29281;50.356;30.894;2023-03-21T01:14:29;99982.86;;;4.06;100.00
43681;BME280;29281;50.356;30.894;2023-03-21T01:15:41;99988.31;;;4.02;100.00
43681;BME280;29281;50.356;30.894;2023-03-21T01:16:42;99987.02;;;3.92;100.00
43681;BME280;29281;50.356;30.894;2023-03-21T01:17:45;99980.72;;;3.96;100.00
43681;BME280;29281;50.356;30.894;2023-03-21T01:18:50;99978.22;;;3.93;100.00
43681;BME280;29281;50.356;30.894;2023-03-21T01:19:54;99980.50;;;4.00;100.00
43681;BME280;29281;50.356;30.894;2023-03-21T01:20:59;99982.33;;;3.98;100.00
43681;BME280;29281;50.356;30.894;2023-03-21T01:22:04;99979.38;;;4.06;100.00
43681;BME280;29281;50.356;30.894;2023-03-21T01:23:11;99974.06;;;4.07;100.00
43681;BME280;29281;50.356;30.894;2023-03-21T01:24:15;99979.31;;;4.07;100.00
43681;BME280;29281;50.356;30.894;2023-03-21T01:25:17;99973.40;;;4.02;100.00
43681;BME280;29281;50.356;30.894;2023-03-21T01:26:22;99980.37;;;4.03;100.00
43681;BME280;29281;50.356;30.894;2023-03-21T01:27:26;99977.54;;;4.08;100.00
43681;BME280;29281;50.356;30.894;2023-03-21T01:28:31;99979.19;;;4.10;100.00
43681;BME280;29281;50.356;30.894;2023-03-21T01:29:37;99978.45;;;4.07;100.00
43681;BME280;29281;50.356;30.894;2023-03-21T01:30:43;99974.91;;;4.08;100.00
43681;BME280;29281;50.356;30.894;2023-03-21T01:31:47;99973.20;;;4.07;100.00
43681;BME280;29281;50.356;30.894;2023-03-21T01:32:52;99972.55;;;4.02;100.00
43681;BME280;29281;50.356;30.894;2023-03-21T01:33:56;99981.28;;;4.02;100.00
43681;BME280;29281;50.356;30.894;2023-03-21T01:34:59;99975.90;;;4.05;100.00
43681;BME280;29281;50.356;30.894;2023-03-21T01:36:03;99969.66;;;4.08;100.00
43681;BME280;29281;50.356;30.894;2023-03-21T01:37:08;99971.30;;;4.10;100.00
43681;BME280;29281;50.356;30.894;2023-03-21T01:38:13;99968.51;;;4.13;100.00
43681;BME280;29281;50.356;30.894;2023-03-21T01:39:18;99967.82;;;4.10;100.00
43681;BME280;29281;50.356;30.894;2023-03-21T01:40:25;99965.98;;;4.12;100.00
43681;BME280;29281;50.356;30.894;2023-03-21T01:42:38;99968.51;;;4.13;100.00
43681;BME280;29281;50.356;30.894;2023-03-21T01:43:42;99961.91;;;4.05;100.00
43681;BME280;29281;50.356;30.894;2023-03-21T01:44:51;99961.91;;;4.05;100.00
43681;BME280;29281;50.356;30.894;2023-03-21T01:47:27;99962.63;;;4.08;100.00
43681;BME280;29281;50.356;30.894;2023-03-21T01:48:32;99954.61;;;4.11;100.00
43681;BME280;29281;50.356;30.894;2023-03-21T01:49:37;99952.73;;;4.13;100.00
43681;BME280;29281;50.356;30.894;2023-03-21T01:50:43;99956.16;;;4.15;100.00
43681;BME280;29281;50.356;30.894;2023-03-21T01:51:56;99953.53;;;4.15;100.00
43681;BME280;29281;50.356;30.894;2023-03-21T01:53:01;99951.06;;;4.12;100.00
43681;BME280;29281;50.356;30.894;2023-03-21T01:54:08;99958.48;;;4.03;100.00
43681;BME280;29281;50.356;30.894;2023-03-21T01:55:12;99954.94;;;4.04;100.00
43681;BME280;29281;50.356;30.894;2023-03-21T01:56:23;99955.20;;;3.98;100.00
43681;BME280;29281;50.356;30.894;2023-03-21T01:57:32;99951.95;;;3.93;100.00
43681;BME280;29281;50.356;30.894;2023-03-21T01:58:44;99950.11;;;3.95;100.00
43681;BME280;29281;50.356;30.894;2023-03-21T02:00:03;99950.97;;;3.95;100.00
43681;BME280;29281;50.356;30.894;2023-03-21T02:01:23;99946.63;;;3.94;100.00
43681;BME280;29281;50.356;30.894;2023-03-21T02:02:28;99953.66;;;3.94;100.00
43681;BME280;29281;50.356;30.894;2023-03-21T02:03:35;99952.08;;;3.89;100.00
43681;BME280;29281;50.356;30.894;2023-03-21T02:04:44;99951.09;;;3.92;100.00
43681;BME280;29281;50.356;30.894;2023-03-21T02:05:59;99944.13;;;3.91;100.00
43681;BME280;29281;50.356;30.894;2023-03-21T02:07:10;99947.55;;;3.93;100.00
43681;BME280;29281;50.356;30.894;2023-03-21T02:08:15;99941.25;;;3.97;100.00
43681;BME280;29281;50.356;30.894;2023-03-21T02:09:23;99941.45;;;3.93;100.00
43681;BME280;29281;50.356;30.894;2023-03-21T02:10:33;99942.23;;;3.95;100.00
43681;BME280;29281;50.356;30.894;2023-03-21T02:11:38;99944.92;;;3.93;100.00
43681;BME280;29281;50.356;30.894;2023-03-21T02:12:41;99941.31;;;3.96;100.00
43681;BME280;29281;50.356;30.894;2023-03-21T02:13:44;99938.69;;;3.96;100.00
43681;BME280;29281;50.356;30.894;2023-03-21T02:14:50;99941.45;;;3.93;100.00
43681;BME280;29281;50.356;30.894;2023-03-21T02:15:58;99942.43;;;3.90;100.00
43681;BME280;29281;50.356;30.894;2023-03-21T02:17:18;99945.84;;;3.92;100.00
43681;BME280;29281;50.356;30.894;2023-03-21T02:18:31;99942.92;;;3.98;100.00
43681;BME280;29281;50.356;30.894;2023-03-21T02:23:36;99939.02;;;3.88;100.00
43681;BME280;29281;50.356;30.894;2023-03-21T02:27:12;99934.34;;;3.95;100.00
43681;BME280;29281;50.356;30.894;2023-03-21T02:29:33;99928.73;;;4.02;100.00
43681;BME280;29281;50.356;30.894;2023-03-21T02:35:40;99931.56;;;3.98;100.00
43681;BME280;29281;50.356;30.894;2023-03-21T02:38:02;99933.13;;;4.02;100.00
43681;BME280;29281;50.356;30.894;2023-03-21T02:39:22;99932.41;;;3.98;100.00
43681;BME280;29281;50.356;30.894;2023-03-21T02:40:29;99929.03;;;3.96;100.00
43681;BME280;29281;50.356;30.894;2023-03-21T02:42:47;99930.47;;;3.83;100.00
43681;BME280;29281;50.356;30.894;2023-03-21T02:47:26;99929.54;;;3.65;100.00
43681;BME280;29281;50.356;30.894;2023-03-21T02:48:34;99931.38;;;3.63;100.00
43681;BME280;29281;50.356;30.894;2023-03-21T02:50:57;99933.65;;;3.71;100.00
43681;BME280;29281;50.356;30.894;2023-03-21T02:52:03;99923.44;;;3.65;100.00
43681;BME280;29281;50.356;30.894;2023-03-21T02:53:12;99914.83;;;3.61;100.00
43681;BME280;29281;50.356;30.894;2023-03-21T02:54:18;99918.63;;;3.54;100.00
43681;BME280;29281;50.356;30.894;2023-03-21T02:55:28;99920.34;;;3.55;100.00
43681;BME280;29281;50.356;30.894;2023-03-21T02:56:35;99928.28;;;3.53;100.00
43681;BME280;29281;50.356;30.894;2023-03-21T02:57:41;99923.19;;;3.50;100.00
43681;BME280;29281;50.356;30.894;2023-03-21T02:58:46;99927.64;;;3.48;100.00
43681;BME280;29281;50.356;30.894;2023-03-21T02:59:51;99919.83;;;3.47;100.00
43681;BME280;29281;50.356;30.894;2023-03-21T03:00:59;99924.95;;;3.50;100.00
43681;BME280;29281;50.356;30.894;2023-03-21T03:02:05;99927.48;;;3.51;100.00
43681;BME280;29281;50.356;30.894;2023-03-21T03:03:10;99925.02;;;3.48;100.00
43681;BME280;29281;50.356;30.894;2023-03-21T03:04:20;99917.20;;;3.47;100.00
43681;BME280;29281;50.356;30.894;2023-03-21T03:05:28;99924.16;;;3.48;100.00
43681;BME280;29281;50.356;30.894;2023-03-21T03:06:36;99923.09;;;3.52;100.00
43681;BME280;29281;50.356;30.894;2023-03-21T03:07:41;99928.34;;;3.52;100.00
43681;BME280;29281;50.356;30.894;2023-03-21T03:10:07;99924.67;;;3.56;100.00
43681;BME280;29281;50.356;30.894;2023-03-21T03:14:32;99923.44;;;3.44;100.00
43681;BME280;29281;50.356;30.894;2023-03-21T03:18:07;99920.49;;;3.32;100.00
43681;BME280;29281;50.356;30.894;2023-03-21T03:19:07;99925.80;;;3.30;100.00
43681;BME280;29281;50.356;30.894;2023-03-21T03:21:20;99921.53;;;3.28;100.00
43681;BME280;29281;50.356;30.894;2023-03-21T03:22:31;99923.42;;;3.24;100.00
43681;BME280;29281;50.356;30.894;2023-03-21T03:25:49;99930.32;;;3.27;100.00
43681;BME280;29281;50.356;30.894;2023-03-21T03:26:54;99927.98;;;3.21;100.00
43681;BME280;29281;50.356;30.894;2023-03-21T03:27:58;99922.79;;;3.19;100.00
43681;BME280;29281;50.356;30.894;2023-03-21T03:29:07;99919.16;;;3.22;100.00
43681;BME280;29281;50.356;30.894;2023-03-21T03:30:13;99923.70;;;3.18;100.00
43681;BME280;29281;50.356;30.894;2023-03-21T03:31:19;99923.77;;;3.16;100.00
43681;BME280;29281;50.356;30.894;2023-03-21T03:32:39;99919.16;;;3.22;100.00
43681;BME280;29281;50.356;30.894;2023-03-21T03:33:48;99930.60;;;3.21;100.00
43681;BME280;29281;50.356;30.894;2023-03-21T03:34:53;99931.52;;;3.20;100.00
43681;BME280;29281;50.356;30.894;2023-03-21T03:36:02;99924.50;;;3.20;100.00
43681;BME280;29281;50.356;30.894;2023-03-21T03:37:12;99929.75;;;3.20;100.00
43681;BME280;29281;50.356;30.894;2023-03-21T03:38:19;99932.37;;;3.20;100.00
43681;BME280;29281;50.356;30.894;2023-03-21T03:39:26;99929.87;;;3.17;100.00
43681;BME280;29281;50.356;30.894;2023-03-21T03:40:38;99929.02;;;3.16;100.00
43681;BME280;29281;50.356;30.894;2023-03-21T03:41:46;99930.72;;;3.17;100.00
43681;BME280;29281;50.356;30.894;2023-03-21T03:42:52;99938.59;;;3.17;100.00
43681;BME280;29281;50.356;30.894;2023-03-21T03:43:58;99938.59;;;3.17;100.00
43681;BME280;29281;50.356;30.894;2023-03-21T03:45:08;99930.66;;;3.19;100.00
43681;BME280;29281;50.356;30.894;2023-03-21T03:46:16;99930.60;;;3.21;100.00
43681;BME280;29281;50.356;30.894;2023-03-21T03:48:29;99929.08;;;3.15;100.00
43681;BME280;29281;50.356;30.894;2023-03-21T03:49:40;99927.30;;;3.15;100.00
43681;BME280;29281;50.356;30.894;2023-03-21T03:50:51;99939.45;;;3.18;100.00
43681;BME280;29281;50.356;30.894;2023-03-21T03:53:15;99940.30;;;3.18;100.00
43681;BME280;29281;50.356;30.894;2023-03-21T03:54:23;99941.16;;;3.19;100.00
43681;BME280;29281;50.356;30.894;2023-03-21T03:55:30;99933.98;;;3.23;100.00
43681;BME280;29281;50.356;30.894;2023-03-21T03:56:39;99920.10;;;3.21;100.00
43681;BME280;29281;50.356;30.894;2023-03-21T03:57:43;99930.44;;;3.24;100.00
43681;BME280;29281;50.356;30.894;2023-03-21T03:58:46;99930.44;;;3.24;100.00
43681;BME280;29281;50.356;30.894;2023-03-21T03:59:51;99925.59;;;3.14;100.00
43681;BME280;29281;50.356;30.894;2023-03-21T04:00:57;99927.88;;;3.22;100.00
43681;BME280;29281;50.356;30.894;2023-03-21T04:02:00;99930.50;;;3.22;100.00
43681;BME280;29281;50.356;30.894;2023-03-21T04:03:04;99928.80;;;3.21;100.00
43681;BME280;29281;50.356;30.894;2023-03-21T04:04:16;99932.21;;;3.23;100.00
43681;BME280;29281;50.356;30.894;2023-03-21T04:05:20;99923.42;;;3.24;100.00
43681;BME280;29281;50.356;30.894;2023-03-21T04:06:28;99925.80;;;3.30;100.00
43681;BME280;29281;50.356;30.894;2023-03-21T04:07:32;99926.59;;;3.32;100.00
43681;BME280;29281;50.356;30.894;2023-03-21T04:08:36;99922.33;;;3.30;100.00
43681;BME280;29281;50.356;30.894;2023-03-21T04:09:40;99930.44;;;3.24;100.00
43681;BME280;29281;50.356;30.894;2023-03-21T04:10:48;99926.72;;;3.29;100.00
43681;BME280;29281;50.356;30.894;2023-03-21T04:11:50;99920.27;;;3.36;100.00
43681;BME280;29281;50.356;30.894;2023-03-21T04:12:54;99922.84;;;3.38;100.00
43681;BME280;29281;50.356;30.894;2023-03-21T04:14:03;99928.14;;;3.36;100.00
43681;BME280;29281;50.356;30.894;2023-03-21T04:15:08;99920.27;;;3.36;100.00
43681;BME280;29281;50.356;30.894;2023-03-21T04:16:15;99927.23;;;3.37;100.00
43681;BME280;29281;50.356;30.894;2023-03-21T04:17:22;99921.98;;;3.37;100.00
43681;BME280;29281;50.356;30.894;2023-03-21T04:18:28;99924.70;;;3.36;100.00
43681;BME280;29281;50.356;30.894;2023-03-21T04:19:30;99925.62;;;3.35;100.00
43681;BME280;29281;50.356;30.894;2023-03-21T04:20:35;99924.83;;;3.33;100.00
43681;BME280;29281;50.356;30.894;2023-03-21T04:21:39;99920.62;;;3.29;100.00
43681;BME280;29281;50.356;30.894;2023-03-21T04:22:43;99924.34;;;3.23;100.00
43681;BME280;29281;50.356;30.894;2023-03-21T04:23:48;99933.06;;;3.24;100.00
43681;BME280;29281;50.356;30.894;2023-03-21T04:24:53;99920.68;;;3.27;100.00
43681;BME280;29281;50.356;30.894;2023-03-21T04:25:57;99924.09;;;3.29;100.00
43681;BME280;29281;50.356;30.894;2023-03-21T04:27:04;99918.78;;;3.31;100.00
43681;BME280;29281;50.356;30.894;2023-03-21T04:28:11;99922.20;;;3.33;100.00
43681;BME280;29281;50.356;30.894;2023-03-21T04:29:19;99923.69;;;3.38;100.00
43681;BME280;29281;50.356;30.894;2023-03-21T04:30:27;99919.05;;;3.45;100.00
43681;BME280;29281;50.356;30.894;2023-03-21T04:31:39;99923.19;;;3.50;100.00
43681;BME280;29281;50.356;30.894;2023-03-21T04:32:46;99924.73;;;3.54;100.00
43681;BME280;29281;50.356;30.894;2023-03-21T04:33:54;99920.88;;;3.63;100.00
43681;BME280;29281;50.356;30.894;2023-03-21T04:34:59;99917.17;;;3.67;100.00
43681;BME280;29281;50.356;30.894;2023-03-21T04:36:04;99922.53;;;3.84;100.00
43681;BME280;29281;50.356;30.894;2023-03-21T04:37:09;99917.89;;;4.10;100.00
43681;BME280;29281;50.356;30.894;2023-03-21T04:38:13;99925.61;;;4.50;100.00
43681;BME280;29281;50.356;30.894;2023-03-21T04:39:18;99925.45;;;4.89;100.00
43681;BME280;29281;50.356;30.894;2023-03-21T04:40:23;99909.84;;;5.21;100.00
43681;BME280;29281;50.356;30.894;2023-03-21T04:41:30;99917.96;;;5.51;100.00
43681;BME280;29281;50.356;30.894;2023-03-21T04:42:36;99927.34;;;5.56;100.00
43681;BME280;29281;50.356;30.894;2023-03-21T04:43:40;99919.52;;;5.38;100.00
43681;BME280;29281;50.356;30.894;2023-03-21T04:44:44;99918.38;;;5.26;100.00
43681;BME280;29281;50.356;30.894;2023-03-21T04:45:50;99921.92;;;5.08;100.00
43681;BME280;29281;50.356;30.894;2023-03-21T04:46:53;99918.36;;;5.09;100.00
43681;BME280;29281;50.356;30.894;2023-03-21T04:47:57;99925.19;;;5.13;100.00
43681;BME280;29281;50.356;30.894;2023-03-21T04:49:01;99919.30;;;5.25;100.00
43681;BME280;29281;50.356;30.894;2023-03-21T04:50:05;99920.78;;;5.30;100.00
43681;BME280;29281;50.356;30.894;2023-03-21T04:51:09;99920.30;;;5.40;100.00
43681;BME280;29281;50.356;30.894;2023-03-21T04:52:13;99925.01;;;5.50;100.00
43681;BME280;29281;50.356;30.894;2023-03-21T04:53:16;99929.27;;;5.53;100.00
43681;BME280;29281;50.356;30.894;2023-03-21T04:54:20;99923.64;;;5.43;100.00
43681;BME280;29281;50.356;30.894;2023-03-21T04:55:23;99921.08;;;5.42;100.00
43681;BME280;29281;50.356;30.894;2023-03-21T04:56:29;99928.12;;;5.41;100.00
43681;BME280;29281;50.356;30.894;2023-03-21T04:57:36;99926.97;;;5.47;100.00
43681;BME280;29281;50.356;30.894;2023-03-21T04:58:41;99925.23;;;5.80;100.00
43681;BME280;29281;50.356;30.894;2023-03-21T04:59:44;99926.02;;;6.47;96.99
43681;BME280;29281;50.356;30.894;2023-03-21T05:00:49;99924.63;;;7.32;90.59
43681;BME280;29281;50.356;30.894;2023-03-21T05:01:55;99928.39;;;8.01;84.97
43681;BME280;29281;50.356;30.894;2023-03-21T05:03:02;99935.25;;;8.60;81.13
43681;BME280;29281;50.356;30.894;2023-03-21T05:04:06;99937.30;;;9.23;77.51
43681;BME280;29281;50.356;30.894;2023-03-21T05:05:10;99941.60;;;9.64;74.19
43681;BME280;29281;50.356;30.894;2023-03-21T05:06:16;99941.84;;;9.99;72.34
43681;BME280;29281;50.356;30.894;2023-03-21T05:07:19;99944.73;;;10.21;69.92
43681;BME280;29281;50.356;30.894;2023-03-21T05:08:24;99951.52;;;10.38;69.27
43681;BME280;29281;50.356;30.894;2023-03-21T05:09:27;99950.10;;;10.45;67.98
43681;BME280;29281;50.356;30.894;2023-03-21T05:10:33;99952.36;;;10.38;67.72
43681;BME280;29281;50.356;30.894;2023-03-21T05:11:37;99951.27;;;10.41;67.55
43681;BME280;29281;50.356;30.894;2023-03-21T05:12:41;99951.08;;;10.31;67.93
43681;BME280;29281;50.356;30.894;2023-03-21T05:13:44;99953.09;;;10.28;68.87
43681;BME280;29281;50.356;30.894;2023-03-21T05:14:48;99956.50;;;10.79;67.07
43681;BME280;29281;50.356;30.894;2023-03-21T05:15:53;99949.78;;;11.10;66.15
43681;BME280;29281;50.356;30.894;2023-03-21T05:16:59;99953.78;;;11.15;65.65
43681;BME280;29281;50.356;30.894;2023-03-21T05:18:05;99958.41;;;11.01;65.48
43681;BME280;29281;50.356;30.894;2023-03-21T05:19:14;99961.59;;;10.82;66.16
43681;BME280;29281;50.356;30.894;2023-03-21T05:20:23;99956.69;;;11.12;65.56
43681;BME280;29281;50.356;30.894;2023-03-21T05:21:28;99958.43;;;11.24;65.37
43681;BME280;29281;50.356;30.894;2023-03-21T05:22:35;99960.05;;;11.38;65.11
43681;BME280;29281;50.356;30.894;2023-03-21T05:23:42;99948.27;;;11.53;64.93
43681;BME280;29281;50.356;30.894;2023-03-21T05:24:45;99961.30;;;11.80;63.32
43681;BME280;29281;50.356;30.894;2023-03-21T05:25:56;99961.81;;;12.08;62.04
43681;BME280;29281;50.356;30.894;2023-03-21T05:27:12;99962.66;;;11.86;62.53
43681;BME280;29281;50.356;30.894;2023-03-21T05:28:19;99961.11;;;11.59;63.17
43681;BME280;29281;50.356;30.894;2023-03-21T05:29:23;99964.62;;;11.60;63.48
43681;BME280;29281;50.356;30.894;2023-03-21T05:30:29;99960.09;;;11.49;63.88
43681;BME280;29281;50.356;30.894;2023-03-21T05:31:33;99963.34;;;11.42;64.58
43681;BME280;29281;50.356;30.894;2023-03-21T05:32:39;99961.23;;;11.34;64.84
43681;BME280;29281;50.356;30.894;2023-03-21T05:33:46;99963.70;;;11.13;64.82
43681;BME280;29281;50.356;30.894;2023-03-21T05:34:52;99960.61;;;10.46;67.44
43681;BME280;29281;50.356;30.894;2023-03-21T05:35:56;99960.33;;;10.38;67.70
43681;BME280;29281;50.356;30.894;2023-03-21T05:37:02;99960.16;;;10.65;68.62
43681;BME280;29281;50.356;30.894;2023-03-21T05:38:12;99951.13;;;10.91;67.95
43681;BME280;29281;50.356;30.894;2023-03-21T05:39:19;99955.65;;;11.02;66.45
43681;BME280;29281;50.356;30.894;2023-03-21T05:40:27;99966.95;;;10.69;67.58
43681;BME280;29281;50.356;30.894;2023-03-21T05:41:33;99955.55;;;9.93;69.52
43681;BME280;29281;50.356;30.894;2023-03-21T05:42:38;99942.05;;;9.70;73.21
43681;BME280;29281;50.356;30.894;2023-03-21T05:43:46;99957.55;;;9.89;71.52
43681;BME280;29281;50.356;30.894;2023-03-21T05:44:51;99948.95;;;9.73;73.00
43681;BME280;29281;50.356;30.894;2023-03-21T05:45:55;99948.25;;;9.31;74.02
43681;BME280;29281;50.356;30.894;2023-03-21T05:47:02;99941.19;;;9.17;75.31
43681;BME280;29281;50.356;30.894;2023-03-21T05:48:13;99944.95;;;9.28;76.17
43681;BME280;29281;50.356;30.894;2023-03-21T05:49:29;99944.50;;;9.86;73.87
43681;BME280;29281;50.356;30.894;2023-03-21T05:50:35;99948.10;;;9.72;73.65
43681;BME280;29281;50.356;30.894;2023-03-21T05:51:40;99942.16;;;9.81;74.11
43681;BME280;29281;50.356;30.894;2023-03-21T05:52:43;99939.70;;;9.78;73.32
43681;BME280;29281;50.356;30.894;2023-03-21T05:53:48;99941.30;;;9.94;73.15
43681;BME280;29281;50.356;30.894;2023-03-21T05:54:50;99937.91;;;9.79;73.69
43681;BME280;29281;50.356;30.894;2023-03-21T05:55:56;99946.54;;;10.20;73.07
43681;BME280;29281;50.356;30.894;2023-03-21T05:57:04;99951.44;;;10.63;70.66
43681;BME280;29281;50.356;30.894;2023-03-21T05:58:17;99940.72;;;10.88;69.73
43681;BME280;29281;50.356;30.894;2023-03-21T05:59:23;99942.15;;;10.81;69.55
43681;BME280;29281;50.356;30.894;2023-03-21T06:00:28;99937.30;;;10.99;69.87
43681;BME280;29281;50.356;30.894;2023-03-21T06:01:38;99941.48;;;11.14;68.78
43681;BME280;29281;50.356;30.894;2023-03-21T06:02:44;99951.23;;;11.38;67.06
43681;BME280;29281;50.356;30.894;2023-03-21T06:03:51;99954.84;;;11.72;66.33
43681;BME280;29281;50.356;30.894;2023-03-21T06:05:02;99959.06;;;12.31;64.59
43681;BME280;29281;50.356;30.894;2023-03-21T06:06:08;99963.27;;;12.79;61.78
43681;BME280;29281;50.356;30.894;2023-03-21T06:07:14;99968.28;;;13.15;60.60
43681;BME280;29281;50.356;30.894;2023-03-21T06:08:20;99976.52;;;13.55;58.78
43681;BME280;29281;50.356;30.894;2023-03-21T06:09:23;99972.82;;;13.88;59.16
43681;BME280;29281;50.356;30.894;2023-03-21T06:10:30;99978.63;;;14.24;57.29
43681;BME280;29281;50.356;30.894;2023-03-21T06:11:35;99983.81;;;14.76;54.92
43681;BME280;29281;50.356;30.894;2023-03-21T06:12:48;99979.83;;;15.21;53.56
43681;BME280;29281;50.356;30.894;2023-03-21T06:14:02;99994.45;;;15.07;52.69
43681;BME280;29281;50.356;30.894;2023-03-21T06:15:06;99990.66;;;15.09;53.15
43681;BME280;29281;50.356;30.894;2023-03-21T06:16:12;99982.89;;;14.57;54.01
43681;BME280;29281;50.356;30.894;2023-03-21T06:17:16;99976.45;;;14.38;55.34
43681;BME280;29281;50.356;30.894;2023-03-21T06:18:24;99974.00;;;14.26;55.56
43681;BME280;29281;50.356;30.894;2023-03-21T06:19:32;99976.55;;;14.27;56.23
43681;BME280;29281;50.356;30.894;2023-03-21T06:20:38;99971.66;;;14.32;55.87
43681;BME280;29281;50.356;30.894;2023-03-21T06:21:43;99967.48;;;13.88;56.68